Terminal Aerodrome Forecast
Issued by NWS

Home | Current Version | Previous Version | Text Only | Print | Product List | Glossary On
Versions: 1 2 3 4 5 6 7 8 9 10 11 12 13 14 15 16
000
FTUS42 KTBW 231500 AAB
TAFLAL
TAF AMD
KLAL 231506Z 2315/2412 15010KT P6SM SCT007 SCT015
      TEMPO 2315/2316 BKN013
     FM231600 15013G20KT P6SM SCT015 BKN025
     FM231800 18015G25KT P6SM SCT025 BKN250
     FM232300 18007KT P6SM SCT025 BKN250
     FM240300 17004KT 6SM BR SCT010 BKN250
     FM240700 VRB03KT 3SM BR SCT005 BKN010=

USA.gov is the U.S. government's official web portal to all federal, state and local government web resources and services.